createdAt,value
2023-09-22T00:01:21.413Z,96538.34
2023-09-22T00:03:49.604Z,96540.41
2023-09-22T00:06:19.094Z,96528.34
2023-09-22T00:08:46.913Z,96527.31
2023-09-22T00:11:14.632Z,96538.94
2023-09-22T00:13:41.601Z,96562.31
2023-09-22T00:16:10.934Z,96580.25
2023-09-22T00:18:40.057Z,96564.22
2023-09-22T00:21:08.266Z,96561.31
2023-09-22T00:23:35.789Z,96557.00
2023-09-22T00:26:03.891Z,96554.81
2023-09-22T00:28:31.464Z,96542.06
2023-09-22T00:30:59.196Z,96538.00
2023-09-22T00:33:27.450Z,96538.28
2023-09-22T00:36:02.824Z,96530.94
2023-09-22T00:38:31.053Z,96527.06
2023-09-22T00:40:58.595Z,96529.44
2023-09-22T00:43:26.133Z,96516.16
2023-09-22T00:45:54.723Z,96509.84
2023-09-22T00:48:25.222Z,96529.56
2023-09-22T00:50:54.277Z,96538.81
2023-09-22T00:53:25.350Z,96535.00
2023-09-22T00:55:54.788Z,96538.81
2023-09-22T00:58:22.393Z,96551.31
2023-09-22T01:00:51.047Z,96563.72
2023-09-22T01:03:19.227Z,96578.66
2023-09-22T01:05:48.012Z,96571.59
2023-09-22T01:08:15.605Z,96578.13
2023-09-22T01:10:45.501Z,96580.84
2023-09-22T01:13:13.494Z,96567.53
2023-09-22T01:15:42.655Z,96564.03
2023-09-22T01:18:11.428Z,96551.50
2023-09-22T01:20:44.637Z,96552.06
2023-09-22T01:23:15.089Z,96543.66
2023-09-22T01:25:43.607Z,96537.19
2023-09-22T01:28:12.672Z,96529.03
2023-09-22T01:30:41.085Z,96520.06
2023-09-22T01:33:09.504Z,96527.41
2023-09-22T01:35:37.540Z,96531.47
2023-09-22T01:38:16.067Z,96534.72
2023-09-22T01:40:44.675Z,96539.63
2023-09-22T01:43:13.693Z,96531.13
2023-09-22T01:45:41.470Z,96539.09
2023-09-22T01:48:10.965Z,96536.91
2023-09-22T01:50:39.943Z,96547.97
2023-09-22T01:53:09.253Z,96549.63
2023-09-22T01:55:38.875Z,96563.75
2023-09-22T01:58:08.243Z,96567.28
2023-09-22T02:00:35.964Z,96564.84
2023-09-22T02:03:03.982Z,96566.72
2023-09-22T02:05:30.798Z,96567.00
2023-09-22T02:07:58.472Z,96562.09
2023-09-22T02:10:26.274Z,96569.72
2023-09-22T02:12:55.323Z,96577.59
2023-09-22T02:15:22.987Z,96577.59
2023-09-22T02:17:50.802Z,96586.00
2023-09-22T02:20:23.207Z,96577.59
2023-09-22T02:22:52.061Z,96559.69
2023-09-22T02:25:20.681Z,96565.13
2023-09-22T02:27:50.059Z,96564.00
2023-09-22T02:30:19.336Z,96558.59
2023-09-22T02:32:48.715Z,96560.25
2023-09-22T02:35:16.440Z,96564.81
2023-09-22T02:37:44.313Z,96575.16
2023-09-22T02:40:14.952Z,96570.81
2023-09-22T02:42:42.574Z,96578.69
2023-09-22T02:45:11.655Z,96564.03
2023-09-22T02:47:42.339Z,96574.34
2023-09-22T02:50:12.391Z,96577.84
2023-09-22T02:52:40.744Z,96575.41
2023-09-22T02:55:10.405Z,96580.28
2023-09-22T02:57:38.216Z,96582.22
2023-09-22T03:00:12.494Z,96584.91
2023-09-22T03:02:41.481Z,96591.44
2023-09-22T03:05:10.993Z,96600.09
2023-09-22T03:07:38.850Z,96592.25
2023-09-22T03:10:07.651Z,96584.66
2023-09-22T03:12:36.742Z,96579.75
2023-09-22T03:15:05.354Z,96571.63
2023-09-22T03:17:33.124Z,96559.44
2023-09-22T03:20:02.089Z,96561.84
2023-09-22T03:22:29.655Z,96562.41
2023-09-22T03:24:58.064Z,96560.22
2023-09-22T03:27:25.716Z,96558.88
2023-09-22T03:29:53.572Z,96536.34
2023-09-22T03:32:22.353Z,96532.03
2023-09-22T03:34:49.959Z,96545.59
2023-09-22T03:37:19.884Z,96550.75
2023-09-22T03:39:48.080Z,96545.03
2023-09-22T03:42:15.649Z,96545.06
2023-09-22T03:44:43.332Z,96547.50
2023-09-22T03:47:10.925Z,96551.56
2023-09-22T03:49:38.574Z,96552.66
2023-09-22T03:52:06.436Z,96552.09
2023-09-22T03:54:35.534Z,96540.16
2023-09-22T03:57:03.084Z,96541.22
2023-09-22T03:59:30.644Z,96539.91
2023-09-22T04:01:58.184Z,96535.03
2023-09-22T04:04:26.118Z,96542.63
2023-09-22T04:06:53.869Z,96541.50
2023-09-22T04:09:22.232Z,96546.41
2023-09-22T04:11:51.158Z,96554.47
2023-09-22T04:14:18.706Z,96554.00
2023-09-22T04:16:46.801Z,96546.41
2023-09-22T04:19:14.615Z,96546.59
2023-09-22T04:21:47.203Z,96567.75
2023-09-22T04:24:16.192Z,96571.84
2023-09-22T04:26:44.686Z,96571.09
2023-09-22T04:29:13.799Z,96578.09
2023-09-22T04:31:41.470Z,96578.31
2023-09-22T04:34:09.171Z,96586.16
2023-09-22T04:36:36.750Z,96596.47
2023-09-22T04:39:09.377Z,96596.47
2023-09-22T04:41:36.896Z,96592.72
2023-09-22T04:44:08.050Z,96601.09
2023-09-22T04:46:36.987Z,96628.97
2023-09-22T04:49:04.656Z,96623.84
2023-09-22T04:51:32.350Z,96657.44
2023-09-22T04:54:02.444Z,96651.13
2023-09-22T04:56:30.489Z,96660.09
2023-09-22T04:58:58.139Z,96653.91
2023-09-22T05:01:26.008Z,96659.38
2023-09-22T05:03:55.276Z,96649.66
2023-09-22T05:06:23.392Z,96654.53
2023-09-22T05:08:50.899Z,96647.22
2023-09-22T05:11:18.412Z,96644.63
2023-09-22T05:13:45.980Z,96644.94
2023-09-22T05:16:14.530Z,96634.69
2023-09-22T05:18:42.285Z,96624.63
2023-09-22T05:21:11.395Z,96618.41
2023-09-22T05:23:39.958Z,96615.97
2023-09-22T05:26:08.570Z,96614.69
2023-09-22T05:28:37.010Z,96605.84
2023-09-22T05:31:06.047Z,96609.34
2023-09-22T05:33:34.494Z,96612.34
2023-09-22T05:36:02.158Z,96595.03
2023-09-22T05:38:31.764Z,96595.06
2023-09-22T05:41:00.059Z,96601.00
2023-09-22T05:43:28.431Z,96599.28
2023-09-22T05:45:57.922Z,96611.56
2023-09-22T05:48:26.041Z,96622.00
2023-09-22T05:50:58.106Z,96631.72
2023-09-22T05:53:26.878Z,96626.19
2023-09-22T05:56:07.206Z,96646.81
2023-09-22T05:58:35.183Z,96657.09
2023-09-22T06:01:09.554Z,96656.31
2023-09-22T06:03:38.246Z,96651.34
2023-09-22T06:06:07.144Z,96671.66
2023-09-22T06:08:34.804Z,96691.69
2023-09-22T06:11:02.670Z,96703.66
2023-09-22T06:13:31.668Z,96699.53
2023-09-22T06:15:59.308Z,96704.13
2023-09-22T06:18:27.074Z,96700.81
2023-09-22T06:20:56.809Z,96693.91
2023-09-22T06:23:25.580Z,96697.13
2023-09-22T06:25:54.292Z,96702.25
2023-09-22T06:28:22.505Z,96710.69
2023-09-22T06:30:51.468Z,96717.91
2023-09-22T06:33:19.412Z,96722.69
2023-09-22T06:35:47.692Z,96727.41
2023-09-22T06:38:15.615Z,96727.59
2023-09-22T06:40:46.008Z,96728.03
2023-09-22T06:43:23.170Z,96722.81
2023-09-22T06:45:53.895Z,96732.66
2023-09-22T06:48:23.573Z,96718.50
2023-09-22T06:50:52.540Z,96718.59
2023-09-22T06:53:20.421Z,96730.72
2023-09-22T06:55:48.020Z,96738.66
2023-09-22T06:58:15.631Z,96755.16
2023-09-22T07:00:43.288Z,96758.41
2023-09-22T07:03:12.423Z,96758.75
2023-09-22T07:05:40.198Z,96752.22
2023-09-22T07:08:07.871Z,96756.34
2023-09-22T07:10:36.570Z,96760.41
2023-09-22T07:13:04.832Z,96770.16
2023-09-22T07:15:34.567Z,96770.88
2023-09-22T07:18:02.374Z,96772.72
2023-09-22T07:20:31.383Z,96778.75
2023-09-22T07:22:58.947Z,96783.47
2023-09-22T07:25:27.770Z,96784.59
2023-09-22T07:27:56.135Z,96788.47
2023-09-22T07:30:23.929Z,96790.53
2023-09-22T07:32:52.404Z,96806.59
2023-09-22T07:35:20.210Z,96809.22
2023-09-22T07:37:49.067Z,96806.84
2023-09-22T07:40:18.013Z,96815.22
2023-09-22T07:42:46.323Z,96829.66
2023-09-22T07:45:14.529Z,96836.69
2023-09-22T07:47:42.161Z,96842.56
2023-09-22T07:50:10.559Z,96837.59
2023-09-22T07:52:38.165Z,96841.34
2023-09-22T07:55:08.117Z,96835.75
2023-09-22T07:57:36.646Z,96838.44
2023-09-22T08:00:07.655Z,96827.72
2023-09-22T08:02:35.294Z,96832.50
2023-09-22T08:05:02.968Z,96832.78
2023-09-22T08:07:30.548Z,96827.28
2023-09-22T08:09:58.154Z,96812.47
2023-09-22T08:12:27.110Z,96813.31
2023-09-22T08:14:58.092Z,96817.19
2023-09-22T08:17:26.138Z,96813.88
2023-09-22T08:19:54.213Z,96803.63
2023-09-22T08:22:21.796Z,96811.38
2023-09-22T08:24:49.869Z,96810.81
2023-09-22T08:27:17.825Z,96810.44
2023-09-22T08:29:48.564Z,96809.88
2023-09-22T08:32:16.391Z,96808.91
2023-09-22T08:34:43.951Z,96807.78
2023-09-22T08:37:11.604Z,96808.75
2023-09-22T08:39:39.517Z,96809.38
2023-09-22T08:42:07.161Z,96805.25
2023-09-22T08:44:35.412Z,96808.19
2023-09-22T08:47:04.375Z,96804.78
2023-09-22T08:49:32.007Z,96805.47
2023-09-22T08:52:01.233Z,96800.63
2023-09-22T08:54:31.538Z,96790.13
2023-09-22T08:56:59.504Z,96793.94
2023-09-22T08:59:28.932Z,96795.59
2023-09-22T09:01:57.034Z,96812.88
2023-09-22T09:04:33.024Z,96815.38
2023-09-22T09:07:00.844Z,96829.13
2023-09-22T09:09:28.485Z,96825.19
2023-09-22T09:12:00.476Z,96826.31
2023-09-22T09:14:29.390Z,96825.53
2023-09-22T09:16:58.028Z,96819.91
2023-09-22T09:19:27.281Z,96818.25
2023-09-22T09:22:07.414Z,96832.56
2023-09-22T09:24:35.361Z,96832.00
2023-09-22T09:27:18.781Z,96849.41
2023-09-22T09:29:48.327Z,96850.97
2023-09-22T09:32:26.585Z,96851.44
2023-09-22T09:34:54.696Z,96845.50
2023-09-22T09:37:24.259Z,96847.97
2023-09-22T09:39:53.724Z,96839.09
2023-09-22T09:42:24.528Z,96842.50
2023-09-22T09:44:53.636Z,96840.03
2023-09-22T09:47:28.331Z,96847.13
2023-09-22T09:49:59.093Z,96841.56
2023-09-22T09:52:33.466Z,96831.38
2023-09-22T09:55:10.444Z,96818.84
2023-09-22T09:57:40.411Z,96809.38
2023-09-22T10:00:14.952Z,96805.97
2023-09-22T10:02:45.124Z,96821.06
2023-09-22T10:05:14.284Z,96815.38
2023-09-22T10:07:43.639Z,96825.31
2023-09-22T10:10:12.817Z,96834.25
2023-09-22T10:12:41.361Z,96841.13
2023-09-22T10:15:10.138Z,96842.44
2023-09-22T10:17:38.155Z,96840.38
2023-09-22T10:20:11.911Z,96839.22
2023-09-22T10:22:40.027Z,96834.78
2023-09-22T10:25:34.796Z,96830.06
2023-09-22T10:28:05.578Z,96828.19
2023-09-22T10:31:05.569Z,96828.91
2023-09-22T10:33:34.059Z,96827.25
2023-09-22T10:36:02.246Z,96831.91
2023-09-22T10:38:29.850Z,96833.13
2023-09-22T10:41:07.848Z,96841.03
2023-09-22T10:43:35.626Z,96841.63
2023-09-22T10:46:03.762Z,96837.38
2023-09-22T10:48:36.430Z,96837.84
2023-09-22T10:51:06.808Z,96841.09
2023-09-22T10:53:39.558Z,96836.03
2023-09-22T10:56:08.491Z,96827.03
2023-09-22T10:58:36.323Z,96836.97
2023-09-22T11:01:06.196Z,96837.25
2023-09-22T11:03:36.321Z,96847.56
2023-09-22T11:06:07.305Z,96856.59
2023-09-22T11:08:35.988Z,96856.03
2023-09-22T11:11:04.146Z,96857.38
2023-09-22T11:13:33.170Z,96859.34
2023-09-22T11:16:03.276Z,96851.41
2023-09-22T11:18:33.555Z,96850.41
2023-09-22T11:21:03.571Z,96862.03
2023-09-22T11:23:31.395Z,96845.63
2023-09-22T11:25:59.886Z,96842.09
2023-09-22T11:28:28.781Z,96841.56
2023-09-22T11:31:07.912Z,96838.44
2023-09-22T11:33:35.554Z,96833.44
2023-09-22T11:36:04.394Z,96842.91
2023-09-22T11:38:33.166Z,96839.28
2023-09-22T11:41:09.416Z,96840.19
2023-09-22T11:43:41.060Z,96851.81
2023-09-22T11:46:12.099Z,96860.41
2023-09-22T11:49:02.569Z,96857.75
2023-09-22T11:51:51.839Z,96854.22
2023-09-22T11:54:21.688Z,96843.16
2023-09-22T11:56:50.306Z,96844.09
2023-09-22T11:59:20.037Z,96842.41
2023-09-22T12:01:51.131Z,96852.00
2023-09-22T12:04:20.384Z,96848.16
2023-09-22T12:06:50.054Z,96860.00
2023-09-22T12:09:17.868Z,96857.69
2023-09-22T12:11:46.469Z,96857.47
2023-09-22T12:14:14.876Z,96841.47
2023-09-22T12:16:43.361Z,96849.63
2023-09-22T12:19:12.398Z,96841.69
2023-09-22T12:21:40.040Z,96848.69
2023-09-22T12:24:08.230Z,96848.78
2023-09-22T12:26:35.771Z,96847.31
2023-09-22T12:29:05.425Z,96838.50
2023-09-22T12:31:34.513Z,96851.44
2023-09-22T12:34:02.544Z,96864.63
2023-09-22T12:36:31.745Z,96857.94
2023-09-22T12:38:59.939Z,96869.22
2023-09-22T12:41:27.547Z,96867.69
2023-09-22T12:43:56.083Z,96855.53
2023-09-22T12:46:24.295Z,96853.59
2023-09-22T12:48:52.869Z,96863.41
2023-09-22T12:51:20.390Z,96863.09
2023-09-22T12:53:52.008Z,96870.72
2023-09-22T12:56:19.526Z,96868.47
2023-09-22T12:58:47.168Z,96866.53
2023-09-22T13:01:16.425Z,96867.09
2023-09-22T13:03:45.576Z,96854.69
2023-09-22T13:06:13.493Z,96853.25
2023-09-22T13:08:41.135Z,96843.44
2023-09-22T13:11:10.154Z,96832.06
2023-09-22T13:13:37.848Z,96821.44
2023-09-22T13:16:05.843Z,96821.53
2023-09-22T13:18:33.414Z,96825.03
2023-09-22T13:21:00.972Z,96837.47
2023-09-22T13:23:29.433Z,96836.59
2023-09-22T13:25:58.537Z,96832.78
2023-09-22T13:28:28.258Z,96845.84
2023-09-22T13:30:56.091Z,96839.88
2023-09-22T13:33:26.985Z,96832.84
2023-09-22T13:35:56.525Z,96846.28
2023-09-22T13:38:24.119Z,96835.25
2023-09-22T13:40:52.119Z,96833.56
2023-09-22T13:43:21.802Z,96837.31
2023-09-22T13:45:50.717Z,96829.69
2023-09-22T13:48:18.421Z,96831.97
2023-09-22T13:50:53.289Z,96829.31
2023-09-22T13:53:20.932Z,96832.59
2023-09-22T13:55:48.517Z,96842.13
2023-09-22T13:58:16.322Z,96834.31
2023-09-22T14:00:43.930Z,96820.41
2023-09-22T14:03:12.963Z,96818.50
2023-09-22T14:05:42.614Z,96815.66
2023-09-22T14:08:10.727Z,96807.53
2023-09-22T14:10:39.118Z,96819.50
2023-09-22T14:13:07.898Z,96823.94
2023-09-22T14:15:35.524Z,96819.06
2023-09-22T14:18:04.131Z,96813.81
2023-09-22T14:20:33.400Z,96818.19
2023-09-22T14:23:01.375Z,96827.06
2023-09-22T14:25:29.068Z,96841.56
2023-09-22T14:27:56.937Z,96837.03
2023-09-22T14:30:25.485Z,96836.50
2023-09-22T14:32:53.587Z,96832.38
2023-09-22T14:35:21.113Z,96840.03
2023-09-22T14:37:49.973Z,96838.94
2023-09-22T14:40:17.672Z,96848.03
2023-09-22T14:42:45.475Z,96849.50
2023-09-22T14:45:13.121Z,96838.53
2023-09-22T14:47:40.899Z,96834.13
2023-09-22T14:50:08.999Z,96835.84
2023-09-22T14:52:36.657Z,96827.91
2023-09-22T14:55:06.594Z,96831.63
2023-09-22T14:57:34.114Z,96840.97
2023-09-22T15:00:01.729Z,96860.09
2023-09-22T15:02:29.699Z,96860.88
2023-09-22T15:04:57.444Z,96860.00
2023-09-22T15:07:25.088Z,96856.56
2023-09-22T15:09:52.685Z,96851.09
2023-09-22T15:12:21.560Z,96849.16
2023-09-22T15:14:49.067Z,96862.78
2023-09-22T15:17:16.648Z,96872.72
2023-09-22T15:19:44.298Z,96871.56
2023-09-22T15:22:11.929Z,96869.78
2023-09-22T15:24:39.534Z,96859.91
2023-09-22T15:27:07.072Z,96865.59
2023-09-22T15:29:35.951Z,96868.28
2023-09-22T15:32:04.706Z,96873.63
2023-09-22T15:34:33.339Z,96866.72
2023-09-22T15:37:01.344Z,96871.84
2023-09-22T15:39:32.679Z,96884.91
2023-09-22T15:42:02.426Z,96879.25
2023-09-22T15:44:30.218Z,96887.44
2023-09-22T15:47:00.440Z,96878.75
2023-09-22T15:49:28.984Z,96872.22
2023-09-22T15:51:56.617Z,96868.38
2023-09-22T15:54:24.399Z,96874.91
2023-09-22T15:56:51.991Z,96871.09
2023-09-22T15:59:19.524Z,96874.13
2023-09-22T16:01:47.362Z,96864.50
2023-09-22T16:04:18.822Z,96877.13
2023-09-22T16:06:46.438Z,96867.53
2023-09-22T16:09:13.968Z,96881.81
2023-09-22T16:11:41.525Z,96877.13
2023-09-22T16:14:09.147Z,96887.03
2023-09-22T16:16:37.723Z,96881.47
2023-09-22T16:19:06.815Z,96880.53
2023-09-22T16:21:36.061Z,96891.94
2023-09-22T16:24:04.808Z,96892.31
2023-09-22T16:26:32.728Z,96898.72
2023-09-22T16:29:00.323Z,96886.47
2023-09-22T16:31:28.021Z,96887.91
2023-09-22T16:33:56.168Z,96878.34
2023-09-22T16:36:23.821Z,96873.69
2023-09-22T16:38:52.775Z,96889.59
2023-09-22T16:41:20.787Z,96886.31
2023-09-22T16:43:48.522Z,96883.31
2023-09-22T16:46:16.287Z,96884.19
2023-09-22T16:48:44.179Z,96876.00
2023-09-22T16:51:11.951Z,96870.66
2023-09-22T16:53:39.462Z,96867.00
2023-09-22T16:56:11.545Z,96876.16
2023-09-22T16:58:41.682Z,96876.00
2023-09-22T17:01:11.649Z,96880.16
2023-09-22T17:03:39.896Z,96873.22
2023-09-22T17:06:07.817Z,96881.63
2023-09-22T17:08:35.876Z,96873.06
2023-09-22T17:11:06.288Z,96877.72
2023-09-22T17:13:35.575Z,96880.03
2023-09-22T17:16:04.441Z,96880.94
2023-09-22T17:18:32.087Z,96892.38
2023-09-22T17:21:00.303Z,96895.16
2023-09-22T17:23:28.001Z,96893.56
2023-09-22T17:25:56.180Z,96893.75
2023-09-22T17:28:23.983Z,96888.84
2023-09-22T17:30:59.779Z,96876.38
2023-09-22T17:33:27.377Z,96883.88
2023-09-22T17:35:55.034Z,96882.19
2023-09-22T17:38:22.597Z,96882.44
2023-09-22T17:40:51.142Z,96884.19
2023-09-22T17:43:18.839Z,96885.38
2023-09-22T17:45:58.481Z,96892.44
2023-09-22T17:48:26.158Z,96906.41
2023-09-22T17:50:53.801Z,96909.13
2023-09-22T17:53:22.084Z,96913.19
2023-09-22T17:55:49.579Z,96905.56
2023-09-22T17:58:18.541Z,96906.31
2023-09-22T18:00:46.179Z,96908.97
2023-09-22T18:03:15.228Z,96898.78
2023-09-22T18:05:42.781Z,96888.28
2023-09-22T18:08:10.309Z,96894.94
2023-09-22T18:10:39.103Z,96889.97
2023-09-22T18:13:08.005Z,96888.19
2023-09-22T18:15:36.425Z,96896.88
2023-09-22T18:18:10.951Z,96906.28
2023-09-22T18:20:40.645Z,96901.44
2023-09-22T18:23:11.226Z,96896.97
2023-09-22T18:25:40.058Z,96896.84
2023-09-22T18:28:07.782Z,96903.16
2023-09-22T18:30:37.580Z,96921.81
2023-09-22T18:33:05.678Z,96916.25
2023-09-22T18:35:33.267Z,96927.25
2023-09-22T18:38:02.576Z,96921.13
2023-09-22T18:40:30.722Z,96921.28
2023-09-22T18:42:58.370Z,96912.13
2023-09-22T18:45:26.078Z,96912.91
2023-09-22T18:47:53.855Z,96909.34
2023-09-22T18:50:22.205Z,96907.06
2023-09-22T18:52:51.758Z,96916.50
2023-09-22T18:55:20.689Z,96923.78
2023-09-22T18:57:48.302Z,96934.19
2023-09-22T19:00:16.369Z,96944.72
2023-09-22T19:02:44.066Z,96961.19
2023-09-22T19:05:12.881Z,96964.22
2023-09-22T19:07:41.420Z,96977.66
2023-09-22T19:10:10.995Z,96982.25
2023-09-22T19:12:42.345Z,96980.53
2023-09-22T19:15:11.313Z,96978.56
2023-09-22T19:17:39.079Z,96990.41
2023-09-22T19:20:07.732Z,96994.13
2023-09-22T19:22:35.309Z,97001.22
2023-09-22T19:25:02.850Z,97012.94
2023-09-22T19:27:31.311Z,97013.84
2023-09-22T19:30:00.266Z,97019.50
2023-09-22T19:32:27.919Z,97016.81
2023-09-22T19:35:01.373Z,97025.72
2023-09-22T19:37:29.087Z,97025.97
2023-09-22T19:39:57.121Z,97026.69
2023-09-22T19:42:24.692Z,97018.09
2023-09-22T19:44:52.207Z,97028.34
2023-09-22T19:47:21.163Z,97031.78
2023-09-22T19:49:49.637Z,97027.63
2023-09-22T19:52:17.257Z,97036.91
2023-09-22T19:54:45.024Z,97037.44
2023-09-22T19:57:12.925Z,97042.69
2023-09-22T19:59:41.401Z,97049.97
2023-09-22T20:02:10.204Z,97049.25
2023-09-22T20:04:39.296Z,97075.38
2023-09-22T20:07:06.884Z,97089.41
2023-09-22T20:09:34.409Z,97083.19
2023-09-22T20:12:02.003Z,97060.81
2023-09-22T20:14:29.650Z,97063.75
2023-09-22T20:17:00.156Z,97062.94
2023-09-22T20:19:27.847Z,97054.31
2023-09-22T20:21:56.756Z,97056.59
2023-09-22T20:24:24.427Z,97055.75
2023-09-22T20:26:51.957Z,97055.66
2023-09-22T20:29:19.513Z,97046.44
2023-09-22T20:31:47.427Z,97053.44
2023-09-22T20:34:15.055Z,97048.47
2023-09-22T20:36:43.098Z,97059.53
2023-09-22T20:39:12.122Z,97049.47
2023-09-22T20:41:39.861Z,97051.81
2023-09-22T20:44:07.857Z,97054.91
2023-09-22T20:46:37.924Z,97054.38
2023-09-22T20:49:06.304Z,97060.25
2023-09-22T20:51:35.926Z,97065.50
2023-09-22T20:54:03.916Z,97068.38
2023-09-22T20:56:32.803Z,97066.22
2023-09-22T20:59:00.406Z,97064.31
2023-09-22T21:01:30.521Z,97068.38
2023-09-22T21:03:58.424Z,97065.38
2023-09-22T21:06:28.160Z,97062.00
2023-09-22T21:08:56.205Z,97081.47
2023-09-22T21:11:24.470Z,97086.28
2023-09-22T21:13:56.456Z,97081.31
2023-09-22T21:16:24.190Z,97078.19
2023-09-22T21:18:54.075Z,97084.78
2023-09-22T21:21:21.820Z,97079.75
2023-09-22T21:23:49.423Z,97089.50
2023-09-22T21:26:21.991Z,97094.00
2023-09-22T21:28:49.705Z,97086.00
2023-09-22T21:31:18.693Z,97092.34
2023-09-22T21:33:47.207Z,97108.53
2023-09-22T21:36:14.793Z,97108.16
2023-09-22T21:38:42.352Z,97111.44
2023-09-22T21:41:11.331Z,97107.72
2023-09-22T21:43:39.269Z,97105.78
2023-09-22T21:46:08.517Z,97106.19
2023-09-22T21:48:38.997Z,97102.75
2023-09-22T21:51:07.805Z,97102.00
2023-09-22T21:53:35.338Z,97104.91
2023-09-22T21:56:03.395Z,97116.28
2023-09-22T21:58:31.022Z,97113.50
2023-09-22T22:00:58.728Z,97117.66
2023-09-22T22:03:28.194Z,97118.53
2023-09-22T22:05:57.177Z,97111.03
2023-09-22T22:08:27.478Z,97123.50
2023-09-22T22:10:55.129Z,97119.84
2023-09-22T22:13:23.955Z,97123.75
2023-09-22T22:15:51.585Z,97122.31
2023-09-22T22:18:19.227Z,97130.50
2023-09-22T22:20:49.332Z,97130.53
2023-09-22T22:23:19.214Z,97129.97
2023-09-22T22:25:47.866Z,97127.00
2023-09-22T22:28:16.363Z,97137.25
2023-09-22T22:30:44.477Z,97136.44
2023-09-22T22:33:15.690Z,97141.38
2023-09-22T22:35:45.764Z,97131.41
2023-09-22T22:38:15.175Z,97139.38
2023-09-22T22:40:44.128Z,97129.28
2023-09-22T22:43:12.111Z,97131.28
2023-09-22T22:45:40.476Z,97138.94
2023-09-22T22:48:10.079Z,97145.38
2023-09-22T22:50:38.621Z,97143.88
2023-09-22T22:53:07.317Z,97141.25
2023-09-22T22:55:35.775Z,97154.66
2023-09-22T22:58:09.914Z,97158.53
2023-09-22T23:00:45.173Z,97158.91
2023-09-22T23:03:13.665Z,97162.53
2023-09-22T23:05:42.167Z,97170.75
2023-09-22T23:08:11.866Z,97168.19
2023-09-22T23:10:44.388Z,97172.47
2023-09-22T23:13:18.483Z,97178.28
2023-09-22T23:15:48.924Z,97168.88
2023-09-22T23:18:17.577Z,97178.63
2023-09-22T23:20:45.536Z,97175.94
2023-09-22T23:23:14.299Z,97185.44
2023-09-22T23:25:42.719Z,97185.44
2023-09-22T23:28:12.870Z,97192.94
2023-09-22T23:30:41.798Z,97196.09
2023-09-22T23:33:09.637Z,97191.53
2023-09-22T23:35:38.306Z,97192.59
2023-09-22T23:38:08.386Z,97189.66
2023-09-22T23:40:36.661Z,97205.16
2023-09-22T23:43:09.724Z,97208.19
2023-09-22T23:45:40.127Z,97203.50
2023-09-22T23:48:09.530Z,97213.94
2023-09-22T23:50:37.702Z,97215.78
2023-09-22T23:53:06.051Z,97211.75
2023-09-22T23:55:34.885Z,97210.78
2023-09-22T23:58:03.689Z,97216.00
